sensor_id;sensor_type;location;lat;lon;timestamp;temperature;humidity
19224;DHT22;9746;47.180;9.776;2023-05-21T05:05:50;12.50;99.90
19224;DHT22;9746;47.180;9.776;2023-05-21T05:08:18;12.60;99.90
19224;DHT22;9746;47.180;9.776;2023-05-21T05:10:48;12.60;99.90
19224;DHT22;9746;47.180;9.776;2023-05-21T05:13:16;12.60;99.90
19224;DHT22;9746;47.180;9.776;2023-05-21T05:15:59;12.70;99.90
19224;DHT22;9746;47.180;9.776;2023-05-21T05:18:26;12.70;99.90
19224;DHT22;9746;47.180;9.776;2023-05-21T05:20:55;12.80;99.90
19224;DHT22;9746;47.180;9.776;2023-05-21T05:23:23;12.90;99.90
19224;DHT22;9746;47.180;9.776;2023-05-21T05:25:54;13.00;99.90
19224;DHT22;9746;47.180;9.776;2023-05-21T05:28:22;13.20;99.90
19224;DHT22;9746;47.180;9.776;2023-05-21T05:30:49;13.30;99.90
19224;DHT22;9746;47.180;9.776;2023-05-21T05:33:16;13.30;99.90
19224;DHT22;9746;47.180;9.776;2023-05-21T05:35:44;13.40;99.90
19224;DHT22;9746;47.180;9.776;2023-05-21T05:38:13;13.50;99.90
19224;DHT22;9746;47.180;9.776;2023-05-21T05:40:40;13.60;99.90
19224;DHT22;9746;47.180;9.776;2023-05-21T05:43:08;13.70;99.90
19224;DHT22;9746;47.180;9.776;2023-05-21T05:45:35;13.80;99.90
19224;DHT22;9746;47.180;9.776;2023-05-21T05:48:03;13.90;99.90
19224;DHT22;9746;47.180;9.776;2023-05-21T05:50:31;14.00;99.90
19224;DHT22;9746;47.180;9.776;2023-05-21T05:52:59;14.20;99.90
19224;DHT22;9746;47.180;9.776;2023-05-21T05:55:28;14.20;99.90
19224;DHT22;9746;47.180;9.776;2023-05-21T05:58:04;14.20;99.90
19224;DHT22;9746;47.180;9.776;2023-05-21T06:00:31;14.20;99.90
19224;DHT22;9746;47.180;9.776;2023-05-21T06:03:01;14.30;99.90
19224;DHT22;9746;47.180;9.776;2023-05-21T06:05:28;14.40;99.90
19224;DHT22;9746;47.180;9.776;2023-05-21T06:07:57;14.60;99.90
19224;DHT22;9746;47.180;9.776;2023-05-21T06:10:25;14.70;99.90
19224;DHT22;9746;47.180;9.776;2023-05-21T06:12:54;14.80;99.90
19224;DHT22;9746;47.180;9.776;2023-05-21T06:15:21;15.00;99.90
19224;DHT22;9746;47.180;9.776;2023-05-21T06:17:49;15.10;99.90
19224;DHT22;9746;47.180;9.776;2023-05-21T06:20:16;15.20;99.90
19224;DHT22;9746;47.180;9.776;2023-05-21T06:22:46;15.30;99.90
19224;DHT22;9746;47.180;9.776;2023-05-21T06:25:14;15.40;99.90
19224;DHT22;9746;47.180;9.776;2023-05-21T06:27:41;15.50;99.90
19224;DHT22;9746;47.180;9.776;2023-05-21T06:30:10;15.60;99.90
19224;DHT22;9746;47.180;9.776;2023-05-21T06:32:39;15.50;99.90
19224;DHT22;9746;47.180;9.776;2023-05-21T06:35:07;15.60;99.90
19224;DHT22;9746;47.180;9.776;2023-05-21T06:37:44;15.60;99.90
19224;DHT22;9746;47.180;9.776;2023-05-21T06:40:12;15.60;99.90
19224;DHT22;9746;47.180;9.776;2023-05-21T06:42:39;15.60;99.90
19224;DHT22;9746;47.180;9.776;2023-05-21T06:45:07;15.60;99.90
19224;DHT22;9746;47.180;9.776;2023-05-21T06:47:47;15.60;99.90
19224;DHT22;9746;47.180;9.776;2023-05-21T06:50:15;15.50;99.90
19224;DHT22;9746;47.180;9.776;2023-05-21T06:52:43;15.50;99.90
19224;DHT22;9746;47.180;9.776;2023-05-21T06:55:10;15.40;99.90
19224;DHT22;9746;47.180;9.776;2023-05-21T06:57:44;15.30;99.90
19224;DHT22;9746;47.180;9.776;2023-05-21T07:00:12;15.30;99.90
19224;DHT22;9746;47.180;9.776;2023-05-21T07:02:49;15.30;99.90
19224;DHT22;9746;47.180;9.776;2023-05-21T07:05:17;15.40;99.90
19224;DHT22;9746;47.180;9.776;2023-05-21T07:07:52;15.60;99.90
19224;DHT22;9746;47.180;9.776;2023-05-21T07:10:19;15.80;99.90
19224;DHT22;9746;47.180;9.776;2023-05-21T07:12:50;15.80;99.90
19224;DHT22;9746;47.180;9.776;2023-05-21T07:15:17;15.90;99.90
19224;DHT22;9746;47.180;9.776;2023-05-21T07:17:48;16.00;99.90
19224;DHT22;9746;47.180;9.776;2023-05-21T07:20:16;16.30;99.90
19224;DHT22;9746;47.180;9.776;2023-05-21T07:22:44;16.40;99.90
19224;DHT22;9746;47.180;9.776;2023-05-21T07:25:12;16.40;99.90
19224;DHT22;9746;47.180;9.776;2023-05-21T07:27:51;16.60;99.90
19224;DHT22;9746;47.180;9.776;2023-05-21T07:30:18;16.80;99.90
19224;DHT22;9746;47.180;9.776;2023-05-21T07:33:06;16.90;99.90
19224;DHT22;9746;47.180;9.776;2023-05-21T07:35:33;17.10;99.90
19224;DHT22;9746;47.180;9.776;2023-05-21T07:38:10;17.30;99.90
19224;DHT22;9746;47.180;9.776;2023-05-21T07:40:37;17.70;99.90
19224;DHT22;9746;47.180;9.776;2023-05-21T07:43:06;17.90;99.90
19224;DHT22;9746;47.180;9.776;2023-05-21T07:45:34;18.10;99.90
19224;DHT22;9746;47.180;9.776;2023-05-21T07:48:09;18.30;99.90
19224;DHT22;9746;47.180;9.776;2023-05-21T07:50:37;18.50;99.90
19224;DHT22;9746;47.180;9.776;2023-05-21T07:53:14;18.70;99.90
19224;DHT22;9746;47.180;9.776;2023-05-21T07:55:41;19.00;99.90
19224;DHT22;9746;47.180;9.776;2023-05-21T07:58:15;19.20;99.90
19224;DHT22;9746;47.180;9.776;2023-05-21T08:00:44;19.50;99.90
19224;DHT22;9746;47.180;9.776;2023-05-21T08:03:15;19.70;99.90
19224;DHT22;9746;47.180;9.776;2023-05-21T08:05:43;20.00;99.90
19224;DHT22;9746;47.180;9.776;2023-05-21T08:08:29;20.20;99.90
19224;DHT22;9746;47.180;9.776;2023-05-21T08:10:56;20.40;99.90
19224;DHT22;9746;47.180;9.776;2023-05-21T08:13:39;20.50;99.90
19224;DHT22;9746;47.180;9.776;2023-05-21T08:16:06;20.60;99.90
19224;DHT22;9746;47.180;9.776;2023-05-21T08:18:46;20.70;99.90
19224;DHT22;9746;47.180;9.776;2023-05-21T08:21:13;20.90;99.90
19224;DHT22;9746;47.180;9.776;2023-05-21T08:24:00;21.00;99.90
19224;DHT22;9746;47.180;9.776;2023-05-21T08:26:28;21.10;99.90
19224;DHT22;9746;47.180;9.776;2023-05-21T08:28:59;21.30;99.90
19224;DHT22;9746;47.180;9.776;2023-05-21T08:31:27;21.50;99.90
19224;DHT22;9746;47.180;9.776;2023-05-21T08:33:57;21.60;99.90
19224;DHT22;9746;47.180;9.776;2023-05-21T08:36:24;21.80;99.90
19224;DHT22;9746;47.180;9.776;2023-05-21T08:38:58;21.90;99.90
19224;DHT22;9746;47.180;9.776;2023-05-21T08:41:26;22.00;99.90
19224;DHT22;9746;47.180;9.776;2023-05-21T08:44:00;22.20;99.90
19224;DHT22;9746;47.180;9.776;2023-05-21T08:46:31;22.40;99.90
19224;DHT22;9746;47.180;9.776;2023-05-21T08:49:02;22.50;99.90
19224;DHT22;9746;47.180;9.776;2023-05-21T08:51:30;22.70;99.90
19224;DHT22;9746;47.180;9.776;2023-05-21T08:54:04;22.80;99.90
19224;DHT22;9746;47.180;9.776;2023-05-21T08:56:33;22.90;99.90
19224;DHT22;9746;47.180;9.776;2023-05-21T08:59:07;23.00;99.90
19224;DHT22;9746;47.180;9.776;2023-05-21T09:01:34;23.10;99.90
19224;DHT22;9746;47.180;9.776;2023-05-21T09:04:14;23.30;99.90
19224;DHT22;9746;47.180;9.776;2023-05-21T09:06:42;23.40;99.90
19224;DHT22;9746;47.180;9.776;2023-05-21T09:09:16;23.50;99.90
19224;DHT22;9746;47.180;9.776;2023-05-21T09:11:45;23.60;99.90
19224;DHT22;9746;47.180;9.776;2023-05-21T09:14:15;23.70;99.90
19224;DHT22;9746;47.180;9.776;2023-05-21T09:16:45;23.80;99.90
19224;DHT22;9746;47.180;9.776;2023-05-21T09:19:30;24.10;99.90
19224;DHT22;9746;47.180;9.776;2023-05-21T09:22:02;24.30;99.90
19224;DHT22;9746;47.180;9.776;2023-05-21T09:24:30;24.50;99.90
19224;DHT22;9746;47.180;9.776;2023-05-21T09:26:58;24.60;99.90
19224;DHT22;9746;47.180;9.776;2023-05-21T09:29:33;24.80;99.90
19224;DHT22;9746;47.180;9.776;2023-05-21T09:32:06;24.90;99.90
19224;DHT22;9746;47.180;9.776;2023-05-21T09:34:36;25.10;99.90
19224;DHT22;9746;47.180;9.776;2023-05-21T09:37:05;25.30;99.90
19224;DHT22;9746;47.180;9.776;2023-05-21T09:39:34;25.50;99.90
19224;DHT22;9746;47.180;9.776;2023-05-21T09:42:02;25.70;99.90
19224;DHT22;9746;47.180;9.776;2023-05-21T09:44:31;25.80;99.90
19224;DHT22;9746;47.180;9.776;2023-05-21T09:46:58;26.10;99.90
19224;DHT22;9746;47.180;9.776;2023-05-21T09:49:49;26.20;99.90
19224;DHT22;9746;47.180;9.776;2023-05-21T09:52:22;26.20;99.90
19224;DHT22;9746;47.180;9.776;2023-05-21T09:54:51;26.40;99.90
19224;DHT22;9746;47.180;9.776;2023-05-21T09:57:23;26.40;99.90
19224;DHT22;9746;47.180;9.776;2023-05-21T09:59:51;26.50;99.90
19224;DHT22;9746;47.180;9.776;2023-05-21T10:02:20;26.50;99.90
19224;DHT22;9746;47.180;9.776;2023-05-21T10:04:50;26.50;99.90
19224;DHT22;9746;47.180;9.776;2023-05-21T10:07:22;26.50;99.90
19224;DHT22;9746;47.180;9.776;2023-05-21T10:09:53;26.60;99.90
19224;DHT22;9746;47.180;9.776;2023-05-21T10:12:23;26.60;99.90
19224;DHT22;9746;47.180;9.776;2023-05-21T10:14:56;26.60;99.90
19224;DHT22;9746;47.180;9.776;2023-05-21T10:17:26;26.80;99.90
19224;DHT22;9746;47.180;9.776;2023-05-21T10:23:17;27.00;99.90
19224;DHT22;9746;47.180;9.776;2023-05-21T10:25:47;27.10;99.90
19224;DHT22;9746;47.180;9.776;2023-05-21T10:31:31;27.40;99.90
19224;DHT22;9746;47.180;9.776;2023-05-21T10:34:06;27.60;99.90
19224;DHT22;9746;47.180;9.776;2023-05-21T10:36:35;27.80;99.90
19224;DHT22;9746;47.180;9.776;2023-05-21T10:39:19;28.10;99.90
19224;DHT22;9746;47.180;9.776;2023-05-21T10:41:55;28.20;99.90
19224;DHT22;9746;47.180;9.776;2023-05-21T10:44:43;28.40;99.90
19224;DHT22;9746;47.180;9.776;2023-05-21T10:47:30;28.70;99.90
19224;DHT22;9746;47.180;9.776;2023-05-21T10:50:25;29.10;99.90
19224;DHT22;9746;47.180;9.776;2023-05-21T10:53:06;29.30;99.90
19224;DHT22;9746;47.180;9.776;2023-05-21T10:55:47;29.60;99.90
19224;DHT22;9746;47.180;9.776;2023-05-21T10:58:42;29.60;99.90
19224;DHT22;9746;47.180;9.776;2023-05-21T11:01:14;29.60;99.90
19224;DHT22;9746;47.180;9.776;2023-05-21T11:03:52;29.30;99.90
19224;DHT22;9746;47.180;9.776;2023-05-21T11:06:22;29.30;99.90
19224;DHT22;9746;47.180;9.776;2023-05-21T11:09:10;29.20;99.90
19224;DHT22;9746;47.180;9.776;2023-05-21T11:11:43;29.10;99.90
19224;DHT22;9746;47.180;9.776;2023-05-21T11:14:32;29.20;99.90
19224;DHT22;9746;47.180;9.776;2023-05-21T11:17:09;29.30;99.90
19224;DHT22;9746;47.180;9.776;2023-05-21T11:23:31;29.40;99.90
19224;DHT22;9746;47.180;9.776;2023-05-21T11:26:14;29.60;99.90
19224;DHT22;9746;47.180;9.776;2023-05-21T11:28:45;29.50;99.90
19224;DHT22;9746;47.180;9.776;2023-05-21T11:31:22;29.40;99.90
19224;DHT22;9746;47.180;9.776;2023-05-21T11:34:13;29.40;99.90
19224;DHT22;9746;47.180;9.776;2023-05-21T11:36:43;29.40;99.90
19224;DHT22;9746;47.180;9.776;2023-05-21T11:39:24;29.30;99.90
19224;DHT22;9746;47.180;9.776;2023-05-21T11:41:54;29.30;99.90
19224;DHT22;9746;47.180;9.776;2023-05-21T11:44:38;29.40;99.90
19224;DHT22;9746;47.180;9.776;2023-05-21T11:47:08;29.50;99.90
19224;DHT22;9746;47.180;9.776;2023-05-21T11:49:45;29.70;99.90
19224;DHT22;9746;47.180;9.776;2023-05-21T11:52:13;30.00;99.90
19224;DHT22;9746;47.180;9.776;2023-05-21T11:54:51;30.40;99.90
19224;DHT22;9746;47.180;9.776;2023-05-21T11:57:20;31.10;99.90
19224;DHT22;9746;47.180;9.776;2023-05-21T11:59:51;31.70;99.90
19224;DHT22;9746;47.180;9.776;2023-05-21T12:02:20;32.40;99.90
19224;DHT22;9746;47.180;9.776;2023-05-21T12:05:04;33.20;99.90
19224;DHT22;9746;47.180;9.776;2023-05-21T12:07:32;34.10;99.90
19224;DHT22;9746;47.180;9.776;2023-05-21T12:10:05;34.90;99.90
19224;DHT22;9746;47.180;9.776;2023-05-21T12:12:33;35.60;99.90
19224;DHT22;9746;47.180;9.776;2023-05-21T12:15:08;36.00;99.90
19224;DHT22;9746;47.180;9.776;2023-05-21T12:17:38;36.40;97.80
19224;DHT22;9746;47.180;9.776;2023-05-21T12:20:14;36.80;98.10
19224;DHT22;9746;47.180;9.776;2023-05-21T12:22:43;37.40;97.90
19224;DHT22;9746;47.180;9.776;2023-05-21T12:25:12;37.80;97.40
19224;DHT22;9746;47.180;9.776;2023-05-21T12:28:06;38.00;94.60
19224;DHT22;9746;47.180;9.776;2023-05-21T12:30:41;38.00;90.30
19224;DHT22;9746;47.180;9.776;2023-05-21T12:33:08;37.60;91.80
19224;DHT22;9746;47.180;9.776;2023-05-21T12:35:39;37.20;91.00
19224;DHT22;9746;47.180;9.776;2023-05-21T12:38:08;37.00;92.40
19224;DHT22;9746;47.180;9.776;2023-05-21T12:40:38;37.00;90.40
19224;DHT22;9746;47.180;9.776;2023-05-21T12:43:06;36.40;87.50
19224;DHT22;9746;47.180;9.776;2023-05-21T12:45:38;35.30;84.80
19224;DHT22;9746;47.180;9.776;2023-05-21T12:48:06;34.80;91.90
19224;DHT22;9746;47.180;9.776;2023-05-21T12:50:33;34.20;90.50
19224;DHT22;9746;47.180;9.776;2023-05-21T12:53:01;33.80;93.10
19224;DHT22;9746;47.180;9.776;2023-05-21T12:55:34;33.50;93.20
19224;DHT22;9746;47.180;9.776;2023-05-21T12:58:03;33.50;93.90
19224;DHT22;9746;47.180;9.776;2023-05-21T13:00:35;33.40;93.30
19224;DHT22;9746;47.180;9.776;2023-05-21T13:03:04;33.60;94.70
19224;DHT22;9746;47.180;9.776;2023-05-21T13:05:32;33.60;92.60
19224;DHT22;9746;47.180;9.776;2023-05-21T13:08:00;33.40;92.70
19224;DHT22;9746;47.180;9.776;2023-05-21T13:10:38;32.90;92.90
19224;DHT22;9746;47.180;9.776;2023-05-21T13:13:05;33.00;92.90
19224;DHT22;9746;47.180;9.776;2023-05-21T13:15:49;33.30;93.40
19224;DHT22;9746;47.180;9.776;2023-05-21T13:18:19;34.30;95.00
19224;DHT22;9746;47.180;9.776;2023-05-21T13:20:47;34.90;93.30
19224;DHT22;9746;47.180;9.776;2023-05-21T13:23:16;35.70;92.40
19224;DHT22;9746;47.180;9.776;2023-05-21T13:25:46;36.30;91.90
19224;DHT22;9746;47.180;9.776;2023-05-21T13:28:14;36.70;90.40
19224;DHT22;9746;47.180;9.776;2023-05-21T13:30:45;35.40;90.00
19224;DHT22;9746;47.180;9.776;2023-05-21T13:33:13;35.10;88.50
19224;DHT22;9746;47.180;9.776;2023-05-21T13:35:44;34.90;90.20
19224;DHT22;9746;47.180;9.776;2023-05-21T13:38:15;35.20;90.90
19224;DHT22;9746;47.180;9.776;2023-05-21T13:41:02;35.40;87.10
19224;DHT22;9746;47.180;9.776;2023-05-21T13:43:30;35.10;87.10
19224;DHT22;9746;47.180;9.776;2023-05-21T13:46:00;35.00;87.00
19224;DHT22;9746;47.180;9.776;2023-05-21T13:48:29;34.50;83.90
19224;DHT22;9746;47.180;9.776;2023-05-21T13:51:00;33.60;85.40
19224;DHT22;9746;47.180;9.776;2023-05-21T13:53:27;33.00;90.50
19224;DHT22;9746;47.180;9.776;2023-05-21T13:56:00;32.80;90.00
19224;DHT22;9746;47.180;9.776;2023-05-21T13:58:28;32.60;88.30
19224;DHT22;9746;47.180;9.776;2023-05-21T14:01:09;32.30;89.10
19224;DHT22;9746;47.180;9.776;2023-05-21T14:03:36;31.70;89.60
19224;DHT22;9746;47.180;9.776;2023-05-21T14:06:05;31.50;89.90
19224;DHT22;9746;47.180;9.776;2023-05-21T14:08:35;31.40;88.70
19224;DHT22;9746;47.180;9.776;2023-05-21T14:11:03;31.40;89.70
19224;DHT22;9746;47.180;9.776;2023-05-21T14:13:31;31.60;88.90
19224;DHT22;9746;47.180;9.776;2023-05-21T14:15:58;32.10;90.50
19224;DHT22;9746;47.180;9.776;2023-05-21T14:18:26;32.60;89.70
19224;DHT22;9746;47.180;9.776;2023-05-21T14:21:09;33.00;92.80
19224;DHT22;9746;47.180;9.776;2023-05-21T14:23:37;33.50;91.80
19224;DHT22;9746;47.180;9.776;2023-05-21T14:29:23;33.50;90.20
19224;DHT22;9746;47.180;9.776;2023-05-21T14:31:50;33.10;90.00
19224;DHT22;9746;47.180;9.776;2023-05-21T14:34:21;32.60;90.30
19224;DHT22;9746;47.180;9.776;2023-05-21T14:36:49;32.10;89.00
19224;DHT22;9746;47.180;9.776;2023-05-21T14:39:17;31.80;88.10
19224;DHT22;9746;47.180;9.776;2023-05-21T14:41:44;31.20;90.00
19224;DHT22;9746;47.180;9.776;2023-05-21T14:44:11;30.80;90.20
19224;DHT22;9746;47.180;9.776;2023-05-21T14:46:39;30.70;93.80
19224;DHT22;9746;47.180;9.776;2023-05-21T14:49:06;30.70;94.90
19224;DHT22;9746;47.180;9.776;2023-05-21T14:51:39;30.70;95.30
19224;DHT22;9746;47.180;9.776;2023-05-21T14:54:09;30.70;95.50
19224;DHT22;9746;47.180;9.776;2023-05-21T14:56:38;30.50;95.80
19224;DHT22;9746;47.180;9.776;2023-05-21T14:59:05;30.40;96.70
19224;DHT22;9746;47.180;9.776;2023-05-21T15:01:50;30.40;98.50
19224;DHT22;9746;47.180;9.776;2023-05-21T15:04:17;30.30;97.70
19224;DHT22;9746;47.180;9.776;2023-05-21T15:06:44;30.30;97.80
19224;DHT22;9746;47.180;9.776;2023-05-21T15:09:13;30.10;97.90
19224;DHT22;9746;47.180;9.776;2023-05-21T15:11:42;30.10;99.80
19224;DHT22;9746;47.180;9.776;2023-05-21T15:14:11;30.00;99.70
19224;DHT22;9746;47.180;9.776;2023-05-21T15:16:38;30.10;99.90
19224;DHT22;9746;47.180;9.776;2023-05-21T15:19:05;30.10;99.90
19224;DHT22;9746;47.180;9.776;2023-05-21T15:21:33;30.10;99.90
19224;DHT22;9746;47.180;9.776;2023-05-21T15:24:01;29.90;99.90
19224;DHT22;9746;47.180;9.776;2023-05-21T15:27:01;29.80;99.90
19224;DHT22;9746;47.180;9.776;2023-05-21T15:29:28;29.80;99.90
19224;DHT22;9746;47.180;9.776;2023-05-21T15:31:56;29.60;99.90
19224;DHT22;9746;47.180;9.776;2023-05-21T15:34:24;29.50;99.90
19224;DHT22;9746;47.180;9.776;2023-05-21T15:36:56;29.50;99.90
19224;DHT22;9746;47.180;9.776;2023-05-21T15:39:25;29.40;99.90
19224;DHT22;9746;47.180;9.776;2023-05-21T15:41:54;29.50;99.90
19224;DHT22;9746;47.180;9.776;2023-05-21T15:44:24;29.50;99.90
19224;DHT22;9746;47.180;9.776;2023-05-21T15:47:00;29.60;99.90
19224;DHT22;9746;47.180;9.776;2023-05-21T15:49:27;29.80;99.90
19224;DHT22;9746;47.180;9.776;2023-05-21T15:51:57;30.00;99.90
19224;DHT22;9746;47.180;9.776;2023-05-21T15:54:25;30.20;99.90
19224;DHT22;9746;47.180;9.776;2023-05-21T16:00:16;30.30;99.90
19224;DHT22;9746;47.180;9.776;2023-05-21T16:02:44;30.30;99.90
19224;DHT22;9746;47.180;9.776;2023-05-21T16:05:20;30.20;99.90
19224;DHT22;9746;47.180;9.776;2023-05-21T16:07:48;30.10;99.90
19224;DHT22;9746;47.180;9.776;2023-05-21T16:10:15;30.00;99.90
19224;DHT22;9746;47.180;9.776;2023-05-21T16:12:42;30.10;99.90
19224;DHT22;9746;47.180;9.776;2023-05-21T16:15:11;30.30;99.90
19224;DHT22;9746;47.180;9.776;2023-05-21T16:17:40;30.40;99.90
19224;DHT22;9746;47.180;9.776;2023-05-21T16:20:30;30.40;99.90
19224;DHT22;9746;47.180;9.776;2023-05-21T16:22:58;30.20;99.90
19224;DHT22;9746;47.180;9.776;2023-05-21T16:28:25;29.40;99.90
19224;DHT22;9746;47.180;9.776;2023-05-21T16:31:01;29.10;99.90
19224;DHT22;9746;47.180;9.776;2023-05-21T16:33:30;28.80;99.90
19224;DHT22;9746;47.180;9.776;2023-05-21T16:38:55;28.50;99.90
19224;DHT22;9746;47.180;9.776;2023-05-21T16:41:43;28.30;99.90
19224;DHT22;9746;47.180;9.776;2023-05-21T16:44:10;28.00;99.90
19224;DHT22;9746;47.180;9.776;2023-05-21T16:49:49;27.70;99.90
19224;DHT22;9746;47.180;9.776;2023-05-21T16:52:21;27.50;99.90
19224;DHT22;9746;47.180;9.776;2023-05-21T16:54:49;27.40;99.90
19224;DHT22;9746;47.180;9.776;2023-05-21T16:57:36;27.30;99.90
19224;DHT22;9746;47.180;9.776;2023-05-21T17:00:04;27.10;99.90
19224;DHT22;9746;47.180;9.776;2023-05-21T17:02:32;26.80;99.90
19224;DHT22;9746;47.180;9.776;2023-05-21T17:05:01;26.70;99.90
19224;DHT22;9746;47.180;9.776;2023-05-21T17:07:28;26.60;99.90
19224;DHT22;9746;47.180;9.776;2023-05-21T17:09:56;26.60;99.90
19224;DHT22;9746;47.180;9.776;2023-05-21T17:12:43;26.40;99.90
19224;DHT22;9746;47.180;9.776;2023-05-21T17:15:11;26.40;99.90
19224;DHT22;9746;47.180;9.776;2023-05-21T17:17:38;26.20;99.90
19224;DHT22;9746;47.180;9.776;2023-05-21T17:20:09;26.00;99.90
19224;DHT22;9746;47.180;9.776;2023-05-21T17:25:49;25.60;99.90
19224;DHT22;9746;47.180;9.776;2023-05-21T17:28:18;25.40;99.90
19224;DHT22;9746;47.180;9.776;2023-05-21T17:30:55;25.10;99.90
19224;DHT22;9746;47.180;9.776;2023-05-21T17:33:23;24.90;99.90
19224;DHT22;9746;47.180;9.776;2023-05-21T17:35:51;24.70;99.90
19224;DHT22;9746;47.180;9.776;2023-05-21T17:38:21;24.60;99.90
19224;DHT22;9746;47.180;9.776;2023-05-21T17:40:54;24.50;99.90
19224;DHT22;9746;47.180;9.776;2023-05-21T17:43:23;24.40;99.90
19224;DHT22;9746;47.180;9.776;2023-05-21T17:45:53;24.20;99.90
19224;DHT22;9746;47.180;9.776;2023-05-21T17:48:20;24.00;99.90
19224;DHT22;9746;47.180;9.776;2023-05-21T17:51:20;23.80;99.90
19224;DHT22;9746;47.180;9.776;2023-05-21T17:53:48;23.60;99.90
19224;DHT22;9746;47.180;9.776;2023-05-21T17:59:16;23.40;99.90
19224;DHT22;9746;47.180;9.776;2023-05-21T18:01:52;23.20;99.90
19224;DHT22;9746;47.180;9.776;2023-05-21T18:04:19;23.10;99.90
19224;DHT22;9746;47.180;9.776;2023-05-21T18:06:48;22.90;99.90
19224;DHT22;9746;47.180;9.776;2023-05-21T18:09:16;22.80;99.90
19224;DHT22;9746;47.180;9.776;2023-05-21T18:11:50;22.60;99.90
19224;DHT22;9746;47.180;9.776;2023-05-21T18:14:18;22.50;99.90
19224;DHT22;9746;47.180;9.776;2023-05-21T18:16:54;22.30;99.90
19224;DHT22;9746;47.180;9.776;2023-05-21T18:19:21;22.20;99.90
19224;DHT22;9746;47.180;9.776;2023-05-21T18:22:17;22.10;99.90
19224;DHT22;9746;47.180;9.776;2023-05-21T18:24:44;21.90;99.90
19224;DHT22;9746;47.180;9.776;2023-05-21T18:27:20;21.80;99.90
19224;DHT22;9746;47.180;9.776;2023-05-21T18:29:47;21.50;99.90
19224;DHT22;9746;47.180;9.776;2023-05-21T18:32:28;21.30;99.90
19224;DHT22;9746;47.180;9.776;2023-05-21T18:34:57;20.90;99.90
19224;DHT22;9746;47.180;9.776;2023-05-21T18:37:39;20.70;99.90
19224;DHT22;9746;47.180;9.776;2023-05-21T18:40:10;20.50;99.90
19224;DHT22;9746;47.180;9.776;2023-05-21T18:42:46;20.20;99.90
19224;DHT22;9746;47.180;9.776;2023-05-21T18:45:15;20.00;99.90
19224;DHT22;9746;47.180;9.776;2023-05-21T18:47:48;19.90;99.90
19224;DHT22;9746;47.180;9.776;2023-05-21T18:50:16;19.80;99.90
19224;DHT22;9746;47.180;9.776;2023-05-21T18:52:46;19.80;99.90
19224;DHT22;9746;47.180;9.776;2023-05-21T18:55:14;19.70;99.90
19224;DHT22;9746;47.180;9.776;2023-05-21T18:57:51;19.70;99.90
19224;DHT22;9746;47.180;9.776;2023-05-21T19:00:20;19.60;99.90
19224;DHT22;9746;47.180;9.776;2023-05-21T19:03:00;19.60;99.90
19224;DHT22;9746;47.180;9.776;2023-05-21T19:05:28;19.60;99.90
19224;DHT22;9746;47.180;9.776;2023-05-21T19:07:57;19.50;99.90
19224;DHT22;9746;47.180;9.776;2023-05-21T19:10:25;19.30;99.90
19224;DHT22;9746;47.180;9.776;2023-05-21T19:13:02;19.20;99.90
19224;DHT22;9746;47.180;9.776;2023-05-21T19:15:30;19.00;99.90
19224;DHT22;9746;47.180;9.776;2023-05-21T19:17:59;18.90;99.90
19224;DHT22;9746;47.180;9.776;2023-05-21T19:20:28;19.00;99.90
19224;DHT22;9746;47.180;9.776;2023-05-21T19:23:03;19.10;99.90
19224;DHT22;9746;47.180;9.776;2023-05-21T19:25:31;19.20;99.90
19224;DHT22;9746;47.180;9.776;2023-05-21T19:28:00;19.20;99.90
19224;DHT22;9746;47.180;9.776;2023-05-21T19:30:27;19.30;99.90
19224;DHT22;9746;47.180;9.776;2023-05-21T19:33:00;19.30;99.90
19224;DHT22;9746;47.180;9.776;2023-05-21T19:35:27;19.30;99.90
19224;DHT22;9746;47.180;9.776;2023-05-21T19:37:55;19.30;99.90
19224;DHT22;9746;47.180;9.776;2023-05-21T19:40:26;19.40;99.90
19224;DHT22;9746;47.180;9.776;2023-05-21T19:42:55;19.30;99.90
19224;DHT22;9746;47.180;9.776;2023-05-21T19:45:22;19.30;99.90
19224;DHT22;9746;47.180;9.776;2023-05-21T19:50:43;19.20;99.90
19224;DHT22;9746;47.180;9.776;2023-05-21T19:53:11;19.20;99.90
19224;DHT22;9746;47.180;9.776;2023-05-21T19:55:40;19.10;99.90
